createdAt,value
2019-05-02T00:01:40.630Z,11.03
2019-05-02T00:04:12.414Z,11.30
2019-05-02T00:06:44.287Z,15.17
2019-05-02T00:09:14.765Z,12.77
2019-05-02T00:11:52.283Z,12.03
2019-05-02T00:14:16.424Z,16.13
2019-05-02T00:16:49.381Z,11.80
2019-05-02T00:19:17.768Z,10.83
2019-05-02T00:21:47.879Z,10.03
2019-05-02T00:24:17.589Z,13.67
2019-05-02T00:26:47.808Z,13.53
2019-05-02T00:29:18.885Z,12.63
2019-05-02T00:31:49.903Z,14.70
2019-05-02T00:34:19.718Z,10.87
2019-05-02T00:36:49.383Z,12.47
2019-05-02T00:39:19.286Z,12.50
2019-05-02T00:41:49.235Z,12.87
2019-05-02T00:44:20.028Z,9.63
2019-05-02T00:46:49.846Z,13.50
2019-05-02T00:49:19.483Z,14.40
2019-05-02T00:51:49.151Z,14.10
2019-05-02T00:54:19.158Z,12.60
2019-05-02T00:56:50.262Z,13.57
2019-05-02T00:59:20.327Z,12.70
2019-05-02T01:02:07.770Z,16.00
2019-05-02T01:04:39.783Z,13.30
2019-05-02T01:07:10.148Z,11.67
2019-05-02T01:09:42.112Z,13.80
2019-05-02T01:12:11.191Z,14.27
2019-05-02T01:14:41.199Z,13.53
2019-05-02T01:17:10.967Z,14.87
2019-05-02T01:19:40.700Z,18.03
2019-05-02T01:22:15.762Z,16.57
2019-05-02T01:24:42.012Z,16.60
2019-05-02T01:27:24.083Z,15.53
2019-05-02T01:30:10.061Z,15.97
2019-05-02T01:33:05.944Z,17.67
2019-05-02T01:35:51.116Z,19.73
2019-05-02T01:38:31.709Z,19.63
2019-05-02T01:40:59.270Z,18.00
2019-05-02T01:43:30.735Z,23.33
2019-05-02T01:46:00.501Z,19.47
2019-05-02T01:48:31.239Z,20.57
2019-05-02T01:51:04.358Z,24.07
2019-05-02T01:53:34.303Z,22.90
2019-05-02T01:56:04.081Z,24.33
2019-05-02T01:58:33.808Z,21.30
2019-05-02T02:01:04.622Z,22.63
2019-05-02T02:03:34.308Z,22.93
2019-05-02T02:06:08.084Z,22.87
2019-05-02T02:08:35.839Z,22.50
2019-05-02T02:11:05.727Z,20.23
2019-05-02T02:13:36.658Z,21.67
2019-05-02T02:16:07.199Z,21.83
2019-05-02T02:18:41.644Z,18.47
2019-05-02T02:21:31.450Z,20.53
2019-05-02T02:24:05.779Z,21.40
2019-05-02T02:26:35.497Z,19.90
2019-05-02T02:29:07.807Z,26.07
2019-05-02T02:31:39.760Z,26.03
2019-05-02T02:34:08.210Z,23.53
2019-05-02T02:36:37.972Z,23.00
2019-05-02T02:39:14.316Z,26.07
2019-05-02T02:41:39.664Z,23.00
2019-05-02T02:44:33.582Z,25.10
2019-05-02T02:47:04.459Z,28.97
2019-05-02T02:49:34.109Z,29.27
2019-05-02T02:52:04.889Z,28.03
2019-05-02T02:54:36.697Z,28.53
2019-05-02T02:57:07.438Z,27.63
2019-05-02T02:59:37.094Z,29.00
2019-05-02T03:02:10.068Z,30.13
2019-05-02T03:04:44.218Z,30.50
2019-05-02T03:07:10.082Z,31.43
2019-05-02T03:09:39.909Z,33.93
2019-05-02T03:12:27.630Z,30.30
2019-05-02T03:14:58.722Z,32.53
2019-05-02T03:17:28.953Z,30.67
2019-05-02T03:20:01.521Z,30.13
2019-05-02T03:22:34.900Z,32.83
2019-05-02T03:25:01.783Z,32.43
2019-05-02T03:27:37.075Z,31.37
2019-05-02T03:30:03.416Z,33.30
2019-05-02T03:32:35.922Z,37.47
2019-05-02T03:35:05.328Z,34.90
2019-05-02T03:37:35.121Z,37.57
2019-05-02T03:40:05.673Z,33.17
2019-05-02T03:42:43.935Z,36.13
2019-05-02T03:45:07.053Z,35.93
2019-05-02T03:47:43.758Z,34.97
2019-05-02T03:50:09.511Z,34.37
2019-05-02T03:52:43.449Z,32.10
2019-05-02T03:55:11.339Z,37.67
2019-05-02T03:57:42.225Z,35.23
2019-05-02T04:00:20.170Z,28.50
2019-05-02T04:02:46.097Z,33.23
2019-05-02T04:05:16.253Z,34.90
2019-05-02T04:07:46.827Z,35.50
2019-05-02T04:10:33.149Z,35.30
2019-05-02T04:13:03.546Z,34.50
2019-05-02T04:15:35.156Z,33.27
2019-05-02T04:18:08.538Z,28.00
2019-05-02T04:20:43.636Z,30.73
2019-05-02T04:23:09.426Z,38.63
2019-05-02T04:25:39.074Z,37.73
2019-05-02T04:28:12.092Z,30.40
2019-05-02T04:30:45.316Z,32.53
2019-05-02T04:33:11.887Z,30.20
2019-05-02T04:35:41.802Z,32.33
2019-05-02T04:38:20.288Z,33.10
2019-05-02T04:40:46.465Z,38.20
2019-05-02T04:43:14.336Z,38.00
2019-05-02T04:45:53.154Z,29.80
2019-05-02T04:48:18.447Z,31.60
2019-05-02T04:50:51.780Z,35.47
2019-05-02T04:53:25.881Z,29.70
2019-05-02T04:56:01.634Z,30.23
2019-05-02T04:58:27.506Z,34.53
2019-05-02T05:01:00.977Z,36.50
2019-05-02T05:03:28.494Z,35.63
2019-05-02T05:05:59.394Z,38.80
2019-05-02T05:08:31.969Z,38.73
2019-05-02T05:11:01.416Z,38.57
2019-05-02T05:13:31.063Z,41.93
2019-05-02T05:16:02.932Z,36.43
2019-05-02T05:18:32.747Z,34.70
2019-05-02T05:21:02.663Z,39.63
2019-05-02T05:23:40.155Z,36.50
2019-05-02T05:26:09.795Z,37.03
2019-05-02T05:28:44.213Z,41.47
2019-05-02T05:31:16.426Z,32.23
2019-05-02T05:33:43.135Z,34.63
2019-05-02T05:36:12.849Z,39.10
2019-05-02T05:38:42.527Z,37.37
2019-05-02T05:41:13.955Z,34.03
2019-05-02T05:43:44.884Z,31.23
2019-05-02T05:46:17.661Z,33.57
2019-05-02T05:48:47.649Z,34.33
2019-05-02T05:51:20.612Z,36.60
2019-05-02T05:53:52.381Z,33.67
2019-05-02T05:56:20.295Z,36.17
2019-05-02T05:58:52.533Z,34.90
2019-05-02T06:01:25.993Z,37.57
2019-05-02T06:03:52.687Z,31.90
2019-05-02T06:06:24.451Z,32.30
2019-05-02T06:08:55.334Z,31.07
2019-05-02T06:11:25.192Z,29.30
2019-05-02T06:13:54.888Z,30.13
2019-05-02T06:16:24.558Z,27.60
2019-05-02T06:18:55.675Z,29.40
2019-05-02T06:21:25.328Z,26.63
2019-05-02T06:23:54.977Z,29.40
2019-05-02T06:26:24.705Z,27.97
2019-05-02T06:28:54.423Z,27.70
2019-05-02T06:31:24.154Z,30.57
2019-05-02T06:33:53.828Z,29.23
2019-05-02T06:36:23.775Z,26.30
2019-05-02T06:38:56.634Z,27.37
2019-05-02T06:41:24.915Z,27.43
2019-05-02T06:43:54.875Z,27.57
2019-05-02T06:46:27.473Z,30.77
2019-05-02T06:48:56.023Z,28.00
2019-05-02T06:51:25.688Z,30.23
2019-05-02T06:53:55.678Z,25.07
2019-05-02T06:56:25.326Z,28.70
2019-05-02T06:58:55.270Z,31.30
2019-05-02T07:01:25.397Z,31.63
2019-05-02T07:03:56.152Z,28.33
2019-05-02T07:06:26.334Z,29.40
2019-05-02T07:08:59.582Z,34.90
2019-05-02T07:11:27.702Z,25.93
2019-05-02T07:13:57.606Z,29.27
2019-05-02T07:16:45.413Z,26.93
2019-05-02T07:19:29.400Z,26.53
2019-05-02T07:22:03.985Z,31.13
2019-05-02T07:24:32.647Z,28.77
2019-05-02T07:27:02.751Z,29.90
2019-05-02T07:29:32.832Z,24.20
2019-05-02T07:32:04.391Z,25.90
2019-05-02T07:34:34.038Z,27.47
2019-05-02T07:37:08.355Z,25.40
2019-05-02T07:39:36.110Z,27.37
2019-05-02T07:42:07.910Z,29.40
2019-05-02T07:44:37.680Z,29.80
2019-05-02T07:47:07.474Z,30.57
2019-05-02T07:49:37.267Z,29.63
2019-05-02T07:52:07.023Z,31.07
2019-05-02T07:54:36.677Z,33.07
2019-05-02T07:57:06.495Z,34.13
2019-05-02T07:59:36.388Z,29.47
2019-05-02T08:02:06.196Z,31.80
2019-05-02T08:04:35.990Z,34.20
2019-05-02T08:07:05.964Z,28.70
2019-05-02T08:09:39.151Z,29.93
2019-05-02T08:12:09.234Z,32.70
2019-05-02T08:14:39.022Z,32.13
2019-05-02T08:17:16.223Z,27.67
2019-05-02T08:19:41.911Z,25.93
2019-05-02T08:22:13.532Z,27.53
2019-05-02T08:24:43.663Z,27.57
2019-05-02T08:27:38.732Z,25.73
2019-05-02T08:30:18.772Z,24.20
2019-05-02T08:32:48.865Z,22.83
2019-05-02T08:35:18.625Z,25.40
2019-05-02T08:37:48.595Z,24.27
2019-05-02T08:40:18.346Z,25.37
2019-05-02T08:42:48.807Z,24.53
2019-05-02T08:45:18.968Z,23.57
2019-05-02T08:47:48.954Z,22.13
2019-05-02T08:50:19.261Z,23.27
2019-05-02T08:52:48.993Z,24.60
2019-05-02T08:55:19.046Z,27.73
2019-05-02T08:57:49.827Z,23.47
2019-05-02T09:00:19.737Z,21.63
2019-05-02T09:02:49.500Z,23.10
2019-05-02T09:05:19.552Z,22.27
2019-05-02T09:07:49.709Z,24.43
2019-05-02T09:10:19.647Z,21.23
2019-05-02T09:12:49.531Z,19.33
2019-05-02T09:15:19.540Z,21.43
2019-05-02T09:17:52.826Z,23.67
2019-05-02T09:20:23.596Z,16.67
2019-05-02T09:22:55.831Z,16.40
2019-05-02T09:25:24.149Z,14.40
2019-05-02T09:27:54.068Z,15.47
2019-05-02T09:30:25.855Z,14.87
2019-05-02T09:32:57.006Z,11.80
2019-05-02T09:35:28.903Z,9.87
2019-05-02T09:37:58.542Z,11.03
2019-05-02T09:40:28.304Z,10.20
2019-05-02T09:43:01.951Z,10.87
2019-05-02T09:45:35.467Z,10.27
2019-05-02T09:48:07.587Z,11.63
2019-05-02T09:50:38.187Z,11.20
2019-05-02T09:53:07.175Z,10.43
2019-05-02T09:55:36.992Z,10.30
2019-05-02T09:58:10.367Z,13.43
2019-05-02T10:00:43.301Z,12.57
2019-05-02T10:03:13.698Z,13.13
2019-05-02T10:05:43.432Z,9.67
2019-05-02T10:08:13.996Z,10.07
2019-05-02T10:10:45.837Z,10.07
2019-05-02T10:13:15.653Z,11.17
2019-05-02T10:15:45.445Z,8.33
2019-05-02T10:18:19.738Z,11.50
2019-05-02T10:20:47.762Z,9.37
2019-05-02T10:23:19.670Z,9.83
2019-05-02T10:25:48.898Z,10.63
2019-05-02T10:28:18.620Z,8.87
2019-05-02T10:30:52.550Z,9.20
2019-05-02T10:33:22.571Z,10.07
2019-05-02T10:35:52.666Z,9.93
2019-05-02T10:38:22.841Z,10.53
2019-05-02T10:40:54.728Z,10.43
2019-05-02T10:43:24.132Z,10.43
2019-05-02T10:45:59.460Z,12.73
2019-05-02T10:48:29.298Z,7.67
2019-05-02T10:51:18.115Z,11.00
2019-05-02T10:53:52.637Z,9.00
2019-05-02T10:56:19.340Z,11.47
2019-05-02T10:58:49.071Z,12.87
2019-05-02T11:01:21.927Z,13.17
2019-05-02T11:03:52.311Z,11.07
2019-05-02T11:06:22.394Z,12.10
2019-05-02T11:08:52.620Z,13.20
2019-05-02T11:11:23.035Z,13.43
2019-05-02T11:14:15.022Z,14.13
2019-05-02T11:16:56.733Z,17.23
2019-05-02T11:19:44.140Z,14.33
2019-05-02T11:22:13.883Z,14.87
2019-05-02T11:24:43.828Z,18.10
2019-05-02T11:27:13.809Z,17.20
2019-05-02T11:29:44.724Z,20.93
2019-05-02T11:32:14.786Z,20.23
2019-05-02T11:34:44.477Z,21.60
2019-05-02T11:37:14.223Z,21.33
2019-05-02T11:39:50.198Z,20.57
2019-05-02T11:42:17.722Z,23.03
2019-05-02T11:44:47.104Z,24.77
2019-05-02T11:47:17.259Z,21.67
2019-05-02T11:49:53.960Z,24.00
2019-05-02T11:52:19.805Z,25.17
2019-05-02T11:54:49.460Z,21.27
2019-05-02T11:57:21.076Z,19.83
2019-05-02T11:59:52.073Z,19.23
2019-05-02T12:02:58.129Z,22.60
2019-05-02T12:05:39.361Z,22.10
2019-05-02T12:08:09.555Z,26.70
2019-05-02T12:10:42.211Z,26.70
2019-05-02T12:13:16.070Z,22.17
2019-05-02T12:15:44.514Z,26.00
2019-05-02T12:18:14.182Z,27.87
2019-05-02T12:20:44.155Z,25.17
2019-05-02T12:23:13.896Z,24.57
2019-05-02T12:25:43.939Z,29.77
2019-05-02T12:28:13.648Z,26.80
2019-05-02T12:30:43.403Z,25.93
2019-05-02T12:33:13.652Z,22.67
2019-05-02T12:35:43.449Z,28.20
2019-05-02T12:38:13.186Z,24.63
2019-05-02T12:40:43.022Z,28.80
2019-05-02T12:43:13.660Z,23.60
2019-05-02T12:45:43.396Z,26.27
2019-05-02T12:48:13.186Z,29.43
2019-05-02T12:50:44.035Z,28.83
2019-05-02T12:53:13.990Z,24.23
2019-05-02T12:55:44.043Z,23.70
2019-05-02T12:58:13.939Z,24.70
2019-05-02T13:00:43.751Z,28.87
2019-05-02T13:03:31.861Z,25.60
2019-05-02T13:06:03.019Z,26.37
2019-05-02T13:08:34.455Z,23.20
2019-05-02T13:11:15.824Z,22.80
2019-05-02T13:13:45.823Z,24.30
2019-05-02T13:16:15.572Z,24.73
2019-05-02T13:18:45.324Z,26.97
2019-05-02T13:21:20.825Z,30.67
2019-05-02T13:23:54.952Z,23.93
2019-05-02T13:26:27.078Z,30.43
2019-05-02T13:28:56.259Z,26.00
2019-05-02T13:31:42.740Z,32.07
2019-05-02T13:34:19.177Z,29.23
2019-05-02T13:36:51.749Z,30.87
2019-05-02T13:39:28.063Z,26.90
2019-05-02T13:41:57.818Z,27.23
2019-05-02T13:44:29.232Z,29.13
2019-05-02T13:46:59.312Z,32.07
2019-05-02T13:49:29.103Z,34.00
2019-05-02T13:51:58.859Z,30.30
2019-05-02T13:54:28.763Z,42.33
2019-05-02T13:56:58.487Z,33.90
2019-05-02T13:59:28.227Z,21.90
2019-05-02T14:01:58.743Z,21.33
2019-05-02T14:04:29.643Z,22.67
2019-05-02T14:06:59.633Z,21.40
2019-05-02T14:09:35.287Z,15.67
2019-05-02T14:12:27.271Z,22.20
2019-05-02T14:14:56.935Z,17.57
2019-05-02T14:17:26.704Z,19.80
2019-05-02T14:20:07.847Z,17.87
2019-05-02T14:22:29.395Z,18.17
2019-05-02T14:25:01.741Z,17.87
2019-05-02T14:27:32.060Z,16.10
2019-05-02T14:30:02.556Z,15.40
2019-05-02T14:32:34.095Z,18.77
2019-05-02T14:35:12.968Z,16.13
2019-05-02T14:37:42.944Z,16.70
2019-05-02T14:40:28.544Z,15.03
2019-05-02T14:43:03.496Z,15.90
2019-05-02T14:45:31.560Z,17.10
2019-05-02T14:48:18.007Z,19.50
2019-05-02T14:50:36.494Z,15.93
2019-05-02T14:53:04.351Z,15.80
2019-05-02T14:55:37.163Z,14.57
2019-05-02T14:58:07.206Z,14.10
2019-05-02T15:00:45.822Z,14.20
2019-05-02T15:03:12.889Z,16.17
2019-05-02T15:05:42.753Z,11.87
2019-05-02T15:08:12.756Z,14.20
2019-05-02T15:10:50.705Z,12.77
2019-05-02T15:13:13.765Z,15.63
2019-05-02T15:15:44.399Z,12.70
2019-05-02T15:18:17.516Z,14.67
2019-05-02T15:20:45.401Z,13.37
2019-05-02T15:23:19.582Z,15.13
2019-05-02T15:25:47.179Z,18.03
2019-05-02T15:28:22.688Z,15.87
2019-05-02T15:31:18.990Z,16.47
2019-05-02T15:34:01.578Z,16.90
2019-05-02T15:36:29.476Z,18.47
2019-05-02T15:41:32.706Z,16.77
2019-05-02T15:44:02.464Z,16.87
2019-05-02T15:46:32.401Z,18.73
2019-05-02T15:49:05.729Z,18.60
2019-05-02T15:51:37.989Z,16.53
2019-05-02T15:54:08.954Z,14.27
2019-05-02T15:57:00.048Z,11.10
2019-05-02T15:59:37.478Z,12.17
2019-05-02T16:02:09.794Z,15.50
2019-05-02T16:04:41.737Z,9.17
2019-05-02T16:07:12.319Z,6.30
2019-05-02T16:09:43.628Z,7.87
2019-05-02T16:12:13.443Z,4.47
2019-05-02T16:14:43.222Z,4.73
2019-05-02T16:17:17.641Z,4.93
2019-05-02T16:19:49.252Z,3.37
2019-05-02T16:22:22.461Z,3.17
2019-05-02T16:24:53.266Z,2.07
2019-05-02T16:27:44.336Z,2.23
2019-05-02T16:30:17.283Z,2.87
2019-05-02T16:32:53.684Z,2.37
2019-05-02T16:35:24.656Z,3.30
2019-05-02T16:37:56.083Z,4.33
2019-05-02T16:40:29.670Z,2.47
2019-05-02T16:42:58.485Z,3.03
2019-05-02T16:45:28.443Z,3.40
2019-05-02T16:48:00.601Z,2.63
2019-05-02T16:50:34.708Z,3.47
2019-05-02T16:53:02.497Z,3.60
2019-05-02T16:55:32.827Z,3.63
2019-05-02T16:58:07.003Z,7.93
2019-05-02T17:00:37.119Z,8.50
2019-05-02T17:03:06.166Z,5.97
2019-05-02T17:05:39.260Z,6.77
2019-05-02T17:08:19.982Z,10.40
2019-05-02T17:10:59.668Z,7.57
2019-05-02T17:13:32.749Z,6.70
2019-05-02T17:16:04.902Z,6.33
2019-05-02T17:18:32.764Z,4.37
2019-05-02T17:21:02.727Z,7.67
2019-05-02T17:23:32.869Z,5.53
2019-05-02T17:26:02.956Z,6.20
2019-05-02T17:28:32.826Z,5.60
2019-05-02T17:31:02.699Z,6.73
2019-05-02T17:33:32.438Z,5.83
2019-05-02T17:36:02.275Z,8.17
2019-05-02T17:38:33.179Z,8.07
2019-05-02T17:41:06.473Z,4.50
2019-05-02T17:43:37.367Z,6.17
2019-05-02T17:46:07.594Z,7.87
2019-05-02T17:48:39.219Z,7.97
2019-05-02T17:51:33.868Z,8.90
2019-05-02T17:54:02.965Z,8.17
2019-05-02T17:56:33.204Z,7.30
2019-05-02T17:59:02.902Z,8.17
2019-05-02T18:01:36.403Z,5.80
2019-05-02T18:04:06.800Z,10.60
2019-05-02T18:06:37.869Z,8.73
2019-05-02T18:09:08.932Z,10.77
2019-05-02T18:11:38.947Z,7.60
2019-05-02T18:14:16.191Z,7.33
2019-05-02T18:16:41.865Z,9.50
2019-05-02T18:19:11.466Z,11.10
2019-05-02T18:21:41.872Z,6.97
2019-05-02T18:24:12.625Z,8.07
2019-05-02T18:26:42.481Z,9.07
2019-05-02T18:29:15.337Z,8.70
2019-05-02T18:31:47.401Z,10.60
2019-05-02T18:34:21.111Z,13.60
2019-05-02T18:36:46.819Z,11.73
2019-05-02T18:39:16.536Z,9.13
2019-05-02T18:41:46.557Z,11.43
2019-05-02T18:44:17.373Z,12.93
2019-05-02T18:46:48.223Z,11.40
2019-05-02T18:49:22.003Z,11.70
2019-05-02T18:51:53.923Z,7.63
2019-05-02T18:54:22.251Z,7.63
2019-05-02T18:56:55.433Z,10.70
2019-05-02T18:59:26.999Z,10.80
2019-05-02T19:01:57.169Z,6.47
2019-05-02T19:04:34.870Z,7.67
2019-05-02T19:06:58.578Z,9.67
2019-05-02T19:09:30.479Z,8.53
2019-05-02T19:12:05.736Z,9.93
2019-05-02T19:14:32.726Z,9.03
2019-05-02T19:17:06.998Z,12.87
2019-05-02T19:19:36.839Z,7.50
2019-05-02T19:22:07.516Z,8.23
2019-05-02T19:24:36.875Z,12.70
2019-05-02T19:27:07.461Z,9.03
2019-05-02T19:29:37.105Z,10.40
2019-05-02T19:32:12.022Z,7.40
2019-05-02T19:34:41.741Z,8.20
2019-05-02T19:37:12.134Z,5.93
2019-05-02T19:39:47.227Z,7.47
2019-05-02T19:42:17.089Z,5.50
2019-05-02T19:44:45.754Z,6.33
2019-05-02T19:47:17.523Z,5.90
2019-05-02T19:49:47.394Z,8.43
2019-05-02T19:52:18.234Z,7.73
2019-05-02T19:54:48.207Z,9.23
2019-05-02T19:57:24.842Z,6.00
2019-05-02T19:59:49.763Z,7.87
2019-05-02T20:02:19.507Z,6.80
2019-05-02T20:04:49.145Z,8.60
2019-05-02T20:07:18.790Z,8.67
2019-05-02T20:09:48.499Z,7.70
2019-05-02T20:12:18.285Z,7.07
2019-05-02T20:14:48.008Z,11.27
2019-05-02T20:17:20.005Z,12.00
2019-05-02T20:19:52.940Z,8.30
2019-05-02T20:22:22.804Z,9.73
2019-05-02T20:25:03.826Z,10.77
2019-05-02T20:27:33.181Z,10.33
2019-05-02T20:30:03.276Z,6.80
2019-05-02T20:32:35.074Z,7.77
2019-05-02T20:35:05.400Z,9.90
2019-05-02T20:37:35.407Z,9.43
2019-05-02T20:40:05.487Z,8.93
2019-05-02T20:42:35.241Z,8.23
2019-05-02T20:45:05.148Z,10.67
2019-05-02T20:47:34.848Z,12.50
2019-05-02T20:50:06.006Z,10.47
2019-05-02T20:52:36.437Z,7.83
2019-05-02T20:55:06.835Z,10.47
2019-05-02T20:57:36.482Z,9.00
2019-05-02T21:00:07.690Z,9.13
2019-05-02T21:02:39.228Z,9.17
2019-05-02T21:05:09.535Z,10.47
2019-05-02T21:07:49.306Z,9.03
2019-05-02T21:10:23.457Z,10.00
2019-05-02T21:12:53.087Z,6.80
2019-05-02T21:15:22.991Z,8.93
2019-05-02T21:17:53.336Z,7.43
2019-05-02T21:20:23.106Z,6.50
2019-05-02T21:22:53.154Z,6.33
2019-05-02T21:25:23.289Z,5.60
2019-05-02T21:27:53.138Z,7.10
2019-05-02T21:30:25.435Z,8.07
2019-05-02T21:32:55.416Z,10.00
2019-05-02T21:35:25.147Z,8.37
2019-05-02T21:37:55.186Z,6.53
2019-05-02T21:40:25.888Z,6.03
2019-05-02T21:42:56.135Z,9.63
2019-05-02T21:45:26.044Z,6.00
2019-05-02T21:47:55.694Z,9.03
2019-05-02T21:50:42.737Z,6.60
2019-05-02T21:53:24.412Z,10.00
2019-05-02T21:56:13.800Z,8.77
2019-05-02T21:59:02.961Z,8.40
2019-05-02T22:01:33.998Z,7.30
2019-05-02T22:04:03.987Z,7.23
2019-05-02T22:06:33.783Z,8.07
2019-05-02T22:09:05.920Z,8.67
2019-05-02T22:11:37.525Z,4.57
2019-05-02T22:14:07.403Z,10.37
2019-05-02T22:16:37.742Z,13.03
2019-05-02T22:19:07.724Z,7.80
2019-05-02T22:21:37.442Z,5.50
2019-05-02T22:24:11.039Z,6.93
2019-05-02T22:26:43.358Z,9.20
2019-05-02T22:29:12.330Z,9.43
2019-05-02T22:31:43.076Z,8.10
2019-05-02T22:34:13.905Z,7.40
2019-05-02T22:36:43.903Z,9.80
2019-05-02T22:39:36.658Z,11.00
2019-05-02T22:42:06.588Z,7.43
2019-05-02T22:44:36.452Z,14.30
2019-05-02T22:47:06.279Z,10.07
2019-05-02T22:49:35.926Z,8.93
2019-05-02T22:52:05.711Z,6.70
2019-05-02T22:54:35.815Z,7.37
2019-05-02T22:57:05.607Z,9.67
2019-05-02T22:59:35.595Z,9.80
2019-05-02T23:02:06.615Z,9.77
2019-05-02T23:04:36.250Z,10.60
2019-05-02T23:07:06.116Z,12.17
2019-05-02T23:09:35.799Z,7.40
2019-05-02T23:12:05.779Z,11.37
2019-05-02T23:14:35.522Z,8.07
2019-05-02T23:17:05.368Z,7.83
2019-05-02T23:19:35.147Z,6.07
2019-05-02T23:22:05.458Z,6.33
2019-05-02T23:24:52.291Z,7.20
2019-05-02T23:27:35.145Z,6.53
2019-05-02T23:30:06.563Z,7.50
2019-05-02T23:32:36.194Z,8.20
2019-05-02T23:35:07.407Z,5.20
2019-05-02T23:37:37.403Z,7.17
2019-05-02T23:40:07.670Z,5.77
2019-05-02T23:42:37.318Z,8.50
2019-05-02T23:45:07.151Z,6.90
2019-05-02T23:47:37.320Z,9.83
2019-05-02T23:50:07.248Z,9.00
2019-05-02T23:52:37.270Z,10.17
2019-05-02T23:55:07.496Z,9.53
2019-05-02T23:57:37.475Z,8.80
